createdAt,value
2019-02-28T00:01:31.946Z,98.10
2019-02-28T00:04:04.180Z,102.90
2019-02-28T00:06:36.321Z,103.83
2019-02-28T00:09:06.855Z,109.10
2019-02-28T00:11:40.209Z,101.95
2019-02-28T00:14:09.424Z,106.50
2019-02-28T00:16:41.434Z,101.72
2019-02-28T00:19:21.055Z,102.72
2019-02-28T00:21:50.318Z,105.78
2019-02-28T00:24:22.860Z,102.58
2019-02-28T00:26:52.183Z,105.58
2019-02-28T00:29:23.682Z,109.20
2019-02-28T00:31:59.774Z,104.87
2019-02-28T00:34:32.980Z,106.43
2019-02-28T00:37:04.677Z,95.90
2019-02-28T00:39:35.534Z,102.42
2019-02-28T00:42:05.916Z,106.90
2019-02-28T00:44:36.520Z,116.55
2019-02-28T00:47:06.987Z,110.78
2019-02-28T00:49:36.202Z,111.72
2019-02-28T00:52:05.129Z,117.47
2019-02-28T00:54:34.116Z,113.55
2019-02-28T00:57:11.280Z,108.25
2019-02-28T00:59:40.253Z,109.50
2019-02-28T01:02:17.575Z,114.00
2019-02-28T01:04:47.266Z,122.65
2019-02-28T01:07:18.126Z,113.25
2019-02-28T01:09:48.015Z,117.33
2019-02-28T01:12:20.216Z,115.88
2019-02-28T01:14:49.230Z,115.80
2019-02-28T01:17:20.608Z,116.53
2019-02-28T01:19:49.582Z,117.22
2019-02-28T01:22:19.190Z,114.72
2019-02-28T01:24:48.224Z,123.85
2019-02-28T01:27:20.646Z,127.42
2019-02-28T01:29:56.650Z,132.40
2019-02-28T01:32:28.540Z,135.37
2019-02-28T01:34:58.580Z,122.80
2019-02-28T01:37:27.662Z,128.97
2019-02-28T01:40:01.120Z,131.30
2019-02-28T01:42:29.375Z,127.50
2019-02-28T01:44:58.400Z,123.75
2019-02-28T01:49:59.826Z,123.13
2019-02-28T01:52:29.028Z,132.35
2019-02-28T01:55:00.704Z,129.10
2019-02-28T01:57:29.667Z,129.53
2019-02-28T01:59:58.719Z,132.72
2019-02-28T02:02:27.705Z,138.77
2019-02-28T02:04:56.733Z,143.20
2019-02-28T02:07:26.569Z,133.37
2019-02-28T02:10:06.794Z,132.27
2019-02-28T02:12:40.209Z,136.32
2019-02-28T02:15:10.257Z,139.32
2019-02-28T02:17:39.229Z,144.60
2019-02-28T02:20:10.153Z,141.07
2019-02-28T02:22:44.500Z,146.68
2019-02-28T02:25:13.793Z,144.77
2019-02-28T02:27:42.788Z,151.65
2019-02-28T02:30:16.324Z,146.57
2019-02-28T02:32:48.723Z,141.10
2019-02-28T02:35:17.747Z,146.85
2019-02-28T02:37:47.957Z,144.25
2019-02-28T02:40:17.013Z,140.73
2019-02-28T02:42:49.793Z,139.85
2019-02-28T02:45:21.888Z,142.15
2019-02-28T02:47:50.924Z,135.07
2019-02-28T02:50:19.957Z,150.78
2019-02-28T02:52:48.969Z,147.62
2019-02-28T02:55:28.038Z,147.35
2019-02-28T02:57:54.161Z,157.32
2019-02-28T03:00:25.544Z,141.85
2019-02-28T03:02:54.677Z,148.35
2019-02-28T03:05:24.257Z,151.68
2019-02-28T03:07:59.535Z,145.90
2019-02-28T03:10:26.642Z,132.10
2019-02-28T03:12:58.969Z,144.68
2019-02-28T03:15:29.572Z,149.30
2019-02-28T03:18:02.199Z,149.23
2019-02-28T03:20:31.172Z,145.57
2019-02-28T03:23:02.271Z,149.85
2019-02-28T03:25:31.613Z,149.85
2019-02-28T03:28:00.573Z,151.53
2019-02-28T03:30:34.101Z,146.87
2019-02-28T03:33:03.548Z,154.03
2019-02-28T03:40:41.277Z,142.18
2019-02-28T03:43:10.482Z,157.32
2019-02-28T03:45:39.543Z,167.10
2019-02-28T03:48:10.063Z,168.80
2019-02-28T03:50:43.654Z,159.18
2019-02-28T03:53:19.302Z,169.72
2019-02-28T03:55:44.386Z,170.92
2019-02-28T03:58:13.611Z,164.70
2019-02-28T04:00:42.541Z,150.17
2019-02-28T04:03:11.530Z,154.97
2019-02-28T04:05:40.621Z,156.43
2019-02-28T04:08:09.596Z,169.60
2019-02-28T04:10:40.055Z,162.12
2019-02-28T04:13:12.297Z,190.22
2019-02-28T04:15:49.577Z,190.82
2019-02-28T04:18:13.489Z,191.43
2019-02-28T04:20:43.983Z,188.93
2019-02-28T04:23:14.679Z,187.03
2019-02-28T04:25:46.377Z,173.53
2019-02-28T04:28:18.613Z,158.70
2019-02-28T04:30:46.995Z,157.43
2019-02-28T04:33:15.964Z,164.62
2019-02-28T04:35:44.977Z,167.70
2019-02-28T04:38:20.503Z,168.28
2019-02-28T04:40:47.077Z,162.43
2019-02-28T04:43:19.434Z,162.53
2019-02-28T04:45:48.464Z,152.15
2019-02-28T04:48:17.472Z,160.80
2019-02-28T04:50:46.544Z,152.30
2019-02-28T04:53:21.520Z,164.05
2019-02-28T04:55:51.783Z,162.47
2019-02-28T04:58:22.397Z,178.05
2019-02-28T05:00:53.838Z,182.22
2019-02-28T05:03:27.967Z,167.68
2019-02-28T05:05:55.059Z,165.88
2019-02-28T05:08:27.647Z,199.72
2019-02-28T05:10:58.277Z,202.07
2019-02-28T05:13:27.255Z,175.32
2019-02-28T05:16:00.099Z,175.07
2019-02-28T05:18:29.901Z,177.22
2019-02-28T05:21:01.252Z,173.05
2019-02-28T05:23:35.782Z,178.18
2019-02-28T05:26:03.300Z,183.57
2019-02-28T05:28:40.163Z,167.87
2019-02-28T05:31:06.891Z,185.25
2019-02-28T05:33:38.293Z,192.13
2019-02-28T05:36:07.319Z,175.45
2019-02-28T05:38:36.403Z,192.80
2019-02-28T05:41:05.586Z,173.95
2019-02-28T05:43:36.229Z,181.90
2019-02-28T05:46:06.793Z,172.65
2019-02-28T05:48:38.613Z,179.07
2019-02-28T05:51:08.055Z,204.80
2019-02-28T05:53:41.360Z,178.50
2019-02-28T05:56:07.696Z,197.22
2019-02-28T05:58:37.640Z,203.45
2019-02-28T06:01:08.793Z,199.23
2019-02-28T06:03:40.342Z,202.45
2019-02-28T06:06:09.293Z,175.93
2019-02-28T06:08:39.035Z,207.65
2019-02-28T06:11:10.783Z,201.22
2019-02-28T06:13:42.984Z,205.98
2019-02-28T06:16:12.532Z,213.25
2019-02-28T06:18:46.169Z,209.05
2019-02-28T06:21:16.589Z,187.03
2019-02-28T06:23:45.566Z,181.12
2019-02-28T06:26:14.537Z,207.75
2019-02-28T06:28:45.315Z,191.12
2019-02-28T06:31:15.283Z,204.78
2019-02-28T06:33:47.679Z,186.88
2019-02-28T06:36:18.254Z,201.47
2019-02-28T06:38:47.226Z,202.45
2019-02-28T06:41:18.543Z,196.18
2019-02-28T06:46:29.804Z,204.47
2019-02-28T06:49:05.957Z,215.05
2019-02-28T06:51:32.081Z,220.15
2019-02-28T06:54:07.897Z,205.67
2019-02-28T06:56:47.373Z,216.73
2019-02-28T06:59:16.342Z,209.27
2019-02-28T07:01:45.322Z,211.22
2019-02-28T07:04:17.094Z,199.15
2019-02-28T07:06:46.174Z,198.55
2019-02-28T07:09:15.168Z,201.85
2019-02-28T07:11:44.186Z,207.12
2019-02-28T07:14:15.143Z,212.25
2019-02-28T07:16:43.829Z,204.28
2019-02-28T07:19:12.861Z,206.07
2019-02-28T07:21:43.868Z,200.75
2019-02-28T07:24:15.570Z,207.85
2019-02-28T07:26:44.529Z,194.10
2019-02-28T07:29:13.733Z,206.60
2019-02-28T07:31:45.414Z,201.60
2019-02-28T07:34:19.372Z,196.55
2019-02-28T07:36:49.055Z,202.80
2019-02-28T07:39:18.070Z,205.37
2019-02-28T07:41:47.100Z,197.87
2019-02-28T07:46:59.039Z,209.67
2019-02-28T07:49:35.834Z,202.60
2019-02-28T07:52:02.905Z,210.95
2019-02-28T07:54:33.147Z,204.03
2019-02-28T07:57:02.218Z,211.82
2019-02-28T07:59:33.330Z,210.23
2019-02-28T08:02:03.194Z,211.45
2019-02-28T08:04:33.162Z,206.82
2019-02-28T08:07:02.141Z,208.23
2019-02-28T08:09:31.673Z,197.75
2019-02-28T08:12:02.281Z,199.72
2019-02-28T08:14:38.209Z,191.65
2019-02-28T08:17:09.107Z,183.47
2019-02-28T08:19:42.343Z,183.90
2019-02-28T08:22:11.418Z,184.70
2019-02-28T08:24:40.445Z,179.87
2019-02-28T08:27:09.423Z,177.87
2019-02-28T08:29:44.689Z,165.47
2019-02-28T08:32:10.439Z,166.45
2019-02-28T08:34:44.054Z,171.72
2019-02-28T08:37:14.455Z,168.75
2019-02-28T08:39:43.472Z,166.20
2019-02-28T08:42:12.711Z,166.25
2019-02-28T08:44:45.737Z,174.17
2019-02-28T08:47:17.942Z,164.47
2019-02-28T08:49:50.405Z,162.05
2019-02-28T08:52:23.333Z,165.32
2019-02-28T08:54:53.501Z,159.03
2019-02-28T08:57:26.454Z,162.07
2019-02-28T08:59:56.383Z,152.82
2019-02-28T09:02:31.458Z,159.07
2019-02-28T09:05:00.414Z,154.82
2019-02-28T09:07:29.427Z,155.35
2019-02-28T09:10:01.330Z,150.53
2019-02-28T09:12:33.285Z,157.72
2019-02-28T09:15:02.419Z,158.47
2019-02-28T09:20:00.622Z,157.35
2019-02-28T09:22:29.739Z,154.57
2019-02-28T09:25:02.554Z,156.10
2019-02-28T09:27:31.526Z,155.10
2019-02-28T09:30:00.803Z,156.10
2019-02-28T09:32:35.254Z,156.15
2019-02-28T09:35:06.015Z,147.43
2019-02-28T09:37:38.795Z,145.20
2019-02-28T09:40:10.895Z,148.50
2019-02-28T09:42:40.162Z,149.70
2019-02-28T09:45:13.285Z,138.35
2019-02-28T09:47:43.872Z,148.13
2019-02-28T09:50:19.460Z,147.15
2019-02-28T09:52:47.631Z,139.03
2019-02-28T09:55:16.639Z,148.73
2019-02-28T09:57:45.633Z,146.50
2019-02-28T10:00:19.629Z,134.05
2019-02-28T10:02:48.712Z,139.35
2019-02-28T10:05:20.110Z,131.30
2019-02-28T10:07:49.166Z,136.07
2019-02-28T10:10:22.066Z,134.50
2019-02-28T10:12:51.265Z,132.10
2019-02-28T10:15:24.023Z,134.45
2019-02-28T10:17:53.283Z,127.97
2019-02-28T10:20:32.067Z,134.80
2019-02-28T10:23:01.046Z,129.55
2019-02-28T10:25:37.302Z,125.45
2019-02-28T10:28:04.627Z,124.58
2019-02-28T10:30:37.650Z,114.62
2019-02-28T10:33:06.640Z,122.07
2019-02-28T10:35:37.733Z,126.05
2019-02-28T10:38:12.771Z,120.95
2019-02-28T10:40:41.866Z,119.47
2019-02-28T10:43:16.495Z,115.77
2019-02-28T10:45:46.782Z,120.82
2019-02-28T10:48:17.923Z,117.15
2019-02-28T10:50:52.821Z,110.75
2019-02-28T10:53:24.235Z,116.73
2019-02-28T10:55:54.371Z,107.45
2019-02-28T10:58:23.953Z,108.97
2019-02-28T11:00:53.140Z,111.28
2019-02-28T11:03:24.321Z,111.57
2019-02-28T11:05:54.329Z,117.20
2019-02-28T11:08:25.251Z,124.27
2019-02-28T11:10:56.897Z,137.20
2019-02-28T11:13:28.455Z,143.55
2019-02-28T11:16:02.843Z,142.87
2019-02-28T11:18:36.529Z,139.90
2019-02-28T11:21:07.501Z,145.25
2019-02-28T11:23:38.018Z,144.45
2019-02-28T11:26:10.483Z,144.93
2019-02-28T11:28:40.043Z,137.45
2019-02-28T11:31:11.829Z,135.07
2019-02-28T11:33:41.666Z,120.75
2019-02-28T11:36:18.359Z,115.50
2019-02-28T11:38:52.543Z,109.48
2019-02-28T11:41:24.628Z,114.95
2019-02-28T11:43:53.630Z,108.32
2019-02-28T11:46:22.652Z,106.72
2019-02-28T11:48:54.067Z,106.67
2019-02-28T11:51:23.994Z,103.87
2019-02-28T11:53:55.745Z,108.83
2019-02-28T11:56:28.902Z,112.37
2019-02-28T11:58:57.194Z,103.55
2019-02-28T12:01:28.632Z,107.43
2019-02-28T12:03:59.096Z,106.22
2019-02-28T12:06:38.818Z,105.52
2019-02-28T12:09:11.632Z,106.60
2019-02-28T12:11:40.894Z,106.85
2019-02-28T12:14:13.474Z,105.80
2019-02-28T12:16:42.478Z,102.45
2019-02-28T12:19:12.443Z,88.67
2019-02-28T12:21:44.882Z,94.20
2019-02-28T12:24:20.242Z,97.22
2019-02-28T12:26:46.141Z,87.65
2019-02-28T12:29:15.103Z,91.25
2019-02-28T12:31:44.110Z,75.67
2019-02-28T12:34:15.059Z,77.70
2019-02-28T12:36:46.327Z,69.60
2019-02-28T12:39:17.515Z,65.50
2019-02-28T12:41:46.527Z,70.12
2019-02-28T12:44:18.364Z,63.38
2019-02-28T12:46:50.691Z,63.95
2019-02-28T12:49:22.356Z,60.48
2019-02-28T12:51:51.885Z,58.42
2019-02-28T12:54:20.829Z,50.10
2019-02-28T12:56:50.054Z,50.23
2019-02-28T12:59:19.027Z,54.60
2019-02-28T13:01:48.075Z,47.88
2019-02-28T13:04:17.083Z,43.80
2019-02-28T13:06:48.916Z,43.35
2019-02-28T13:09:18.383Z,40.23
2019-02-28T13:11:47.346Z,39.27
2019-02-28T13:14:19.073Z,40.15
2019-02-28T13:16:48.059Z,41.30
2019-02-28T13:19:21.062Z,37.42
2019-02-28T13:21:50.414Z,34.48
2019-02-28T13:24:19.523Z,35.05
2019-02-28T13:26:48.472Z,29.37
2019-02-28T13:29:17.531Z,34.65
2019-02-28T13:31:50.699Z,29.48
2019-02-28T13:34:21.217Z,25.80
2019-02-28T13:36:50.177Z,23.85
2019-02-28T13:39:21.087Z,31.80
2019-02-28T13:41:51.193Z,24.15
2019-02-28T13:44:20.193Z,30.97
2019-02-28T13:46:49.294Z,25.05
2019-02-28T13:49:19.271Z,31.20
2019-02-28T13:54:17.370Z,32.88
2019-02-28T13:59:20.051Z,26.05
2019-02-28T14:01:52.121Z,31.77
2019-02-28T14:04:26.106Z,27.32
2019-02-28T14:06:57.012Z,28.67
2019-02-28T14:09:26.129Z,35.70
2019-02-28T14:11:55.771Z,31.60
2019-02-28T14:14:24.775Z,35.00
2019-02-28T14:16:58.274Z,35.28
2019-02-28T14:19:26.085Z,28.35
2019-02-28T14:21:58.210Z,30.27
2019-02-28T14:24:30.851Z,31.62
2019-02-28T14:27:02.506Z,27.25
2019-02-28T14:29:33.237Z,30.90
2019-02-28T14:32:04.640Z,30.40
2019-02-28T14:34:35.495Z,29.45
2019-02-28T14:37:10.280Z,29.45
2019-02-28T14:39:42.647Z,26.73
2019-02-28T14:42:18.436Z,28.98
2019-02-28T14:44:49.684Z,32.05
2019-02-28T14:47:20.370Z,25.45
2019-02-28T14:49:52.715Z,26.23
2019-02-28T14:52:21.766Z,23.92
2019-02-28T14:54:58.302Z,21.77
2019-02-28T14:57:29.370Z,21.60
2019-02-28T15:00:00.014Z,21.17
2019-02-28T15:02:28.996Z,14.93
2019-02-28T15:04:57.945Z,24.43
2019-02-28T15:07:29.616Z,16.85
2019-02-28T15:10:02.723Z,20.92
2019-02-28T15:12:33.536Z,24.40
2019-02-28T15:15:08.984Z,24.32
2019-02-28T15:17:38.847Z,19.77
2019-02-28T15:20:11.328Z,21.52
2019-02-28T15:22:41.829Z,23.62
2019-02-28T15:25:18.576Z,19.60
2019-02-28T15:27:51.947Z,20.00
2019-02-28T15:30:22.446Z,20.27
2019-02-28T15:32:54.221Z,19.98
2019-02-28T15:38:11.273Z,24.70
2019-02-28T15:40:41.763Z,20.80
2019-02-28T15:43:18.133Z,22.05
2019-02-28T15:45:47.326Z,24.02
2019-02-28T15:48:20.157Z,24.72
2019-02-28T15:50:51.773Z,29.63
2019-02-28T15:53:21.655Z,33.80
2019-02-28T15:55:51.036Z,24.10
2019-02-28T15:58:19.990Z,30.57
2019-02-28T16:00:53.601Z,25.72
2019-02-28T16:03:21.313Z,19.85
2019-02-28T16:05:51.912Z,23.40
2019-02-28T16:08:28.272Z,25.35
2019-02-28T16:10:57.283Z,32.00
2019-02-28T16:13:27.954Z,25.88
2019-02-28T16:15:56.934Z,27.35
2019-02-28T16:18:29.124Z,21.35
2019-02-28T16:20:58.214Z,23.00
2019-02-28T16:23:30.015Z,22.22
2019-02-28T16:25:58.046Z,22.62
2019-02-28T16:28:33.508Z,17.23
2019-02-28T16:31:06.418Z,24.77
2019-02-28T16:33:35.772Z,21.30
2019-02-28T16:36:06.841Z,22.42
2019-02-28T16:38:37.444Z,26.30
2019-02-28T16:41:08.164Z,25.80
2019-02-28T16:43:37.560Z,26.25
2019-02-28T16:46:12.346Z,23.67
2019-02-28T16:48:40.617Z,19.42
2019-02-28T16:51:09.798Z,29.32
2019-02-28T16:53:38.726Z,30.30
2019-02-28T16:56:09.199Z,23.75
2019-02-28T16:58:42.467Z,31.87
2019-02-28T17:01:12.434Z,29.48
2019-02-28T17:03:43.604Z,27.75
2019-02-28T17:06:12.579Z,35.45
2019-02-28T17:08:44.261Z,28.70
2019-02-28T17:11:18.319Z,22.75
2019-02-28T17:13:48.865Z,27.02
2019-02-28T17:16:24.601Z,32.50
2019-02-28T17:18:53.615Z,29.48
2019-02-28T17:21:23.912Z,25.43
2019-02-28T17:23:55.206Z,19.37
2019-02-28T17:26:25.173Z,27.60
2019-02-28T17:29:05.224Z,23.60
2019-02-28T17:34:04.744Z,15.98
2019-02-28T17:36:33.799Z,29.90
2019-02-28T17:39:04.441Z,24.00
2019-02-28T17:41:37.157Z,25.80
2019-02-28T17:44:25.461Z,24.25
2019-02-28T17:46:56.963Z,20.30
2019-02-28T17:49:38.938Z,18.23
2019-02-28T17:52:09.441Z,20.00
2019-02-28T17:54:43.156Z,23.38
2019-02-28T17:57:21.219Z,22.35
2019-02-28T17:59:57.662Z,21.93
2019-02-28T18:02:31.147Z,21.12
2019-02-28T18:05:09.091Z,25.48
2019-02-28T18:07:57.862Z,25.82
2019-02-28T18:10:31.820Z,27.25
2019-02-28T18:13:09.955Z,30.85
2019-02-28T18:16:01.971Z,31.05
2019-02-28T18:18:36.479Z,31.57
2019-02-28T18:21:11.639Z,33.35
2019-02-28T18:24:00.235Z,31.73
2019-02-28T18:26:51.859Z,33.50
2019-02-28T18:29:34.106Z,29.40
2019-02-28T18:32:05.999Z,34.13
2019-02-28T18:34:35.569Z,36.15
2019-02-28T18:37:04.864Z,37.67
2019-02-28T18:39:33.838Z,32.13
2019-02-28T18:42:05.969Z,35.58
2019-02-28T18:44:40.915Z,33.33
2019-02-28T18:47:09.335Z,44.98
2019-02-28T18:49:41.640Z,36.93
2019-02-28T18:52:13.360Z,45.70
2019-02-28T18:54:45.436Z,39.78
2019-02-28T18:57:16.013Z,36.40
2019-02-28T18:59:46.875Z,41.55
2019-02-28T19:02:16.089Z,38.23
2019-02-28T19:04:45.150Z,39.05
2019-02-28T19:07:15.818Z,38.25
2019-02-28T19:09:45.145Z,39.83
2019-02-28T19:12:28.288Z,43.87
2019-02-28T19:14:58.898Z,37.65
2019-02-28T19:17:32.694Z,38.05
2019-02-28T19:20:02.935Z,43.28
2019-02-28T19:22:35.474Z,33.83
2019-02-28T19:25:07.598Z,33.90
2019-02-28T19:27:37.960Z,44.15
2019-02-28T19:30:08.499Z,40.73
2019-02-28T19:32:39.078Z,52.17
2019-02-28T19:35:08.060Z,43.35
2019-02-28T19:37:39.848Z,44.98
2019-02-28T19:40:16.461Z,33.63
2019-02-28T19:42:47.362Z,41.53
2019-02-28T19:45:18.033Z,34.30
2019-02-28T19:47:47.681Z,40.65
2019-02-28T19:50:17.054Z,44.25
2019-02-28T19:52:46.083Z,42.88
2019-02-28T19:55:15.114Z,32.25
2019-02-28T19:57:44.092Z,32.80
2019-02-28T20:00:16.476Z,37.13
2019-02-28T20:02:45.525Z,34.80
2019-02-28T20:05:14.614Z,38.05
2019-02-28T20:07:43.588Z,39.78
2019-02-28T20:10:15.530Z,37.95
2019-02-28T20:12:50.058Z,37.63
2019-02-28T20:15:23.886Z,35.70
2019-02-28T20:17:55.529Z,35.50
2019-02-28T20:20:27.108Z,42.10
2019-02-28T20:22:59.433Z,40.73
2019-02-28T20:25:28.410Z,38.75
2019-02-28T20:27:57.454Z,40.70
2019-02-28T20:30:26.702Z,42.60
2019-02-28T20:32:55.671Z,48.17
2019-02-28T20:35:26.782Z,39.83
2019-02-28T20:37:55.475Z,49.33
2019-02-28T20:40:31.687Z,40.43
2019-02-28T20:43:00.018Z,47.23
2019-02-28T20:45:32.139Z,48.05
2019-02-28T20:48:01.171Z,48.75
2019-02-28T20:50:43.686Z,44.18
2019-02-28T20:53:12.659Z,43.65
2019-02-28T20:55:41.898Z,55.58
2019-02-28T20:58:10.828Z,45.70
2019-02-28T21:00:40.371Z,41.15
2019-02-28T21:03:13.209Z,43.35
2019-02-28T21:05:44.654Z,40.70
2019-02-28T21:08:18.071Z,46.53
2019-02-28T21:10:47.147Z,52.15
2019-02-28T21:15:50.122Z,44.35
2019-02-28T21:18:19.084Z,50.50
2019-02-28T21:20:48.167Z,45.43
2019-02-28T21:23:20.209Z,51.23
2019-02-28T21:25:51.855Z,46.13
2019-02-28T21:28:20.835Z,44.85
2019-02-28T21:30:54.361Z,39.57
2019-02-28T21:33:26.909Z,44.85
2019-02-28T21:35:55.980Z,52.75
2019-02-28T21:38:28.982Z,57.65
2019-02-28T21:40:58.402Z,52.08
2019-02-28T21:43:27.674Z,59.60
2019-02-28T21:45:56.702Z,54.95
2019-02-28T21:48:25.671Z,54.25
2019-02-28T21:50:54.648Z,59.03
2019-02-28T21:53:23.697Z,55.58
2019-02-28T21:55:52.736Z,57.50
2019-02-28T21:58:23.523Z,57.93
2019-02-28T22:00:56.897Z,56.40
2019-02-28T22:03:25.944Z,55.33
2019-02-28T22:05:55.823Z,68.22
2019-02-28T22:08:26.433Z,70.17
2019-02-28T22:10:58.654Z,68.05
2019-02-28T22:13:27.695Z,75.05
2019-02-28T22:15:58.296Z,67.85
2019-02-28T22:18:31.156Z,66.57
2019-02-28T22:21:00.141Z,76.00
2019-02-28T22:23:29.174Z,83.20
2019-02-28T22:25:59.092Z,68.00
2019-02-28T22:28:30.242Z,72.65
2019-02-28T22:33:50.352Z,81.42
2019-02-28T22:36:23.886Z,86.72
2019-02-28T22:38:53.098Z,81.75
2019-02-28T22:41:23.686Z,85.77
2019-02-28T22:43:52.718Z,78.83
2019-02-28T22:46:21.750Z,78.78
2019-02-28T22:48:52.803Z,79.62
2019-02-28T22:51:21.851Z,77.00
2019-02-28T22:53:54.320Z,74.22
2019-02-28T22:56:25.166Z,59.73
2019-02-28T22:58:54.155Z,65.87
2019-02-28T23:01:26.717Z,68.17
2019-02-28T23:03:57.268Z,61.83
2019-02-28T23:06:26.902Z,70.08
2019-02-28T23:08:55.878Z,78.25
2019-02-28T23:11:24.864Z,68.75
2019-02-28T23:13:53.950Z,63.95
2019-02-28T23:16:23.091Z,63.70
2019-02-28T23:18:58.044Z,65.22
2019-02-28T23:21:29.105Z,70.25
2019-02-28T23:23:58.085Z,70.50
2019-02-28T23:26:27.121Z,76.62
2019-02-28T23:28:57.637Z,71.92
2019-02-28T23:31:46.342Z,74.45
2019-02-28T23:34:22.827Z,70.00
2019-02-28T23:36:51.820Z,74.97
2019-02-28T23:39:23.670Z,76.85
2019-02-28T23:41:54.978Z,78.52
2019-02-28T23:44:23.969Z,85.35
2019-02-28T23:46:52.990Z,74.72
2019-02-28T23:49:21.957Z,92.72
2019-02-28T23:51:55.491Z,97.05
2019-02-28T23:54:27.025Z,107.80
2019-02-28T23:56:56.119Z,132.18
2019-02-28T23:59:25.123Z,137.80
